createdAt,value
2019-04-05T00:03:35.650Z,31.20
2019-04-05T00:06:43.749Z,29.90
2019-04-05T00:09:51.769Z,29.63
2019-04-05T00:12:52.508Z,35.87
2019-04-05T00:15:53.069Z,33.57
2019-04-05T00:18:53.926Z,30.70
2019-04-05T00:21:54.817Z,34.23
2019-04-05T00:24:55.794Z,35.03
2019-04-05T00:27:56.574Z,32.57
2019-04-05T00:30:57.549Z,29.87
2019-04-05T00:33:57.929Z,28.10
2019-04-05T00:36:58.733Z,27.17
2019-04-05T00:39:59.397Z,32.80
2019-04-05T00:42:59.962Z,31.23
2019-04-05T00:46:00.634Z,29.27
2019-04-05T00:49:01.294Z,27.60
2019-04-05T00:52:02.224Z,29.67
2019-04-05T00:55:03.002Z,28.00
2019-04-05T00:58:03.941Z,30.40
2019-04-05T01:01:04.861Z,27.37
2019-04-05T01:04:05.878Z,27.30
2019-04-05T01:07:06.897Z,27.93
2019-04-05T01:10:07.758Z,31.03
2019-04-05T01:13:08.321Z,28.43
2019-04-05T01:16:09.445Z,28.03
2019-04-05T01:19:10.126Z,28.00
2019-04-05T01:22:10.953Z,33.42
2019-04-05T01:25:11.450Z,28.30
2019-04-05T01:28:12.476Z,33.87
2019-04-05T01:34:28.445Z,26.87
2019-04-05T01:37:36.881Z,28.07
2019-04-05T01:41:05.537Z,29.70
2019-04-05T01:44:13.582Z,31.97
2019-04-05T01:47:21.597Z,29.73
2019-04-05T01:50:29.701Z,32.73
2019-04-05T01:53:37.730Z,28.57
2019-04-05T01:56:45.745Z,34.43
2019-04-05T01:59:53.777Z,31.67
2019-04-05T02:03:01.830Z,30.27
2019-04-05T02:06:09.865Z,32.80
2019-04-05T02:09:17.994Z,39.20
2019-04-05T02:12:26.149Z,32.30
2019-04-05T02:16:05.649Z,28.57
2019-04-05T02:19:04.597Z,30.37
2019-04-05T02:22:12.618Z,28.63
2019-04-05T02:25:20.717Z,29.47
2019-04-05T02:28:28.736Z,31.57
2019-04-05T02:31:36.774Z,29.87
2019-04-05T02:34:44.810Z,28.87
2019-04-05T02:37:52.969Z,27.73
2019-04-05T02:41:01.390Z,29.37
2019-04-05T02:44:30.051Z,33.03
2019-04-05T02:47:58.859Z,26.93
2019-04-05T02:51:09.153Z,28.90
2019-04-05T02:54:17.536Z,29.53
2019-04-05T02:57:25.956Z,29.00
2019-04-05T03:00:34.167Z,29.53
2019-04-05T03:03:42.654Z,27.93
2019-04-05T03:07:11.317Z,31.53
2019-04-05T03:10:38.586Z,30.60
2019-04-05T03:13:39.050Z,31.80
2019-04-05T03:16:41.641Z,29.17
2019-04-05T03:19:42.675Z,27.67
2019-04-05T03:22:43.302Z,32.03
2019-04-05T03:25:43.815Z,31.93
2019-04-05T03:28:44.548Z,28.90
2019-04-05T03:31:45.136Z,31.30
2019-04-05T03:34:45.824Z,28.87
2019-04-05T03:37:46.246Z,31.40
2019-04-05T03:40:46.897Z,29.87
2019-04-05T03:43:47.568Z,33.93
2019-04-05T03:46:56.316Z,32.30
2019-04-05T03:49:50.835Z,33.23
2019-04-05T03:52:51.806Z,30.43
2019-04-05T03:55:52.442Z,36.13
2019-04-05T03:58:52.962Z,32.27
2019-04-05T04:01:53.476Z,30.57
2019-04-05T04:04:54.187Z,30.33
2019-04-05T04:07:54.959Z,32.30
2019-04-05T04:10:55.638Z,33.27
2019-04-05T04:13:56.360Z,41.08
2019-04-05T04:17:11.535Z,33.33
2019-04-05T04:19:59.250Z,31.53
2019-04-05T04:22:59.933Z,35.27
2019-04-05T04:26:01.217Z,31.37
2019-04-05T04:29:01.917Z,30.80
2019-04-05T04:32:02.651Z,33.67
2019-04-05T04:35:03.245Z,29.40
2019-04-05T04:38:03.866Z,34.37
2019-04-05T04:41:04.878Z,31.60
2019-04-05T04:44:05.298Z,28.97
2019-04-05T04:47:06.027Z,32.00
2019-04-05T04:50:06.794Z,31.80
2019-04-05T04:53:07.598Z,31.87
2019-04-05T04:56:08.382Z,27.57
2019-04-05T04:59:09.234Z,26.63
2019-04-05T05:02:09.930Z,32.23
2019-04-05T05:05:10.657Z,31.73
2019-04-05T05:08:11.789Z,28.80
2019-04-05T05:11:14.890Z,25.40
2019-04-05T05:14:15.334Z,27.77
2019-04-05T05:17:16.094Z,30.57
2019-04-05T05:20:16.898Z,27.30
2019-04-05T05:23:17.637Z,30.67
2019-04-05T05:26:18.554Z,25.87
2019-04-05T05:29:19.536Z,29.87
2019-04-05T05:32:20.266Z,30.03
2019-04-05T05:35:21.266Z,29.13
2019-04-05T05:38:21.890Z,25.70
2019-04-05T05:41:22.735Z,24.37
2019-04-05T05:44:23.722Z,26.60
2019-04-05T05:47:24.532Z,24.33
2019-04-05T05:50:25.217Z,24.10
2019-04-05T05:53:26.105Z,25.43
2019-04-05T05:56:27.151Z,22.93
2019-04-05T05:59:30.346Z,24.67
2019-04-05T06:02:30.781Z,27.87
2019-04-05T06:05:31.513Z,26.83
2019-04-05T06:08:32.249Z,27.07
2019-04-05T06:11:32.941Z,28.30
2019-04-05T06:14:33.796Z,26.00
2019-04-05T06:17:34.654Z,26.33
2019-04-05T06:20:35.646Z,26.60
2019-04-05T06:23:36.614Z,24.20
2019-04-05T06:26:37.421Z,24.87
2019-04-05T06:29:38.349Z,27.37
2019-04-05T06:32:38.754Z,24.10
2019-04-05T06:35:39.776Z,27.03
2019-04-05T06:38:40.548Z,24.97
2019-04-05T06:41:41.285Z,26.93
2019-04-05T06:44:42.065Z,25.73
2019-04-05T06:47:42.905Z,24.67
2019-04-05T06:50:43.346Z,24.60
2019-04-05T06:53:44.010Z,26.33
2019-04-05T06:56:44.969Z,23.17
2019-04-05T06:59:45.845Z,25.07
2019-04-05T07:02:46.646Z,23.27
2019-04-05T07:05:47.505Z,23.17
2019-04-05T07:08:53.960Z,26.57
2019-04-05T07:11:51.090Z,24.07
2019-04-05T07:14:52.080Z,24.43
2019-04-05T07:17:52.894Z,25.73
2019-04-05T07:20:53.584Z,23.20
2019-04-05T07:23:54.573Z,24.07
2019-04-05T07:26:55.225Z,28.67
2019-04-05T07:29:56.143Z,28.80
2019-04-05T07:32:56.873Z,26.03
2019-04-05T07:35:57.837Z,24.63
2019-04-05T07:38:58.592Z,27.93
2019-04-05T07:41:59.392Z,29.40
2019-04-05T07:45:00.418Z,23.40
2019-04-05T07:48:01.060Z,30.00
2019-04-05T07:51:01.867Z,19.97
2019-04-05T07:54:02.509Z,25.27
2019-04-05T07:57:03.117Z,26.17
2019-04-05T08:00:03.910Z,30.17
2019-04-05T08:03:04.339Z,41.63
2019-04-05T08:06:05.126Z,24.17
2019-04-05T08:09:06.304Z,24.23
2019-04-05T08:12:07.301Z,27.50
2019-04-05T08:15:08.126Z,24.30
2019-04-05T08:18:08.733Z,25.57
2019-04-05T08:21:09.593Z,27.30
2019-04-05T08:24:10.814Z,23.67
2019-04-05T08:27:11.559Z,28.30
2019-04-05T08:30:12.432Z,23.63
2019-04-05T08:33:13.365Z,28.20
2019-04-05T08:36:14.092Z,24.73
2019-04-05T08:39:14.598Z,26.67
2019-04-05T08:42:15.587Z,25.20
2019-04-05T08:45:16.193Z,25.23
2019-04-05T08:48:16.813Z,25.60
2019-04-05T08:51:17.705Z,24.23
2019-04-05T08:54:31.605Z,23.70
2019-04-05T08:57:21.426Z,26.53
2019-04-05T09:00:22.400Z,24.17
2019-04-05T09:03:23.042Z,29.00
2019-04-05T09:06:23.974Z,25.73
2019-04-05T09:09:24.697Z,28.30
2019-04-05T09:12:25.355Z,24.77
2019-04-05T09:15:24.471Z,24.63
2019-04-05T09:18:32.505Z,22.63
2019-04-05T09:21:40.791Z,25.07
2019-04-05T09:24:50.249Z,26.43
2019-04-05T09:27:58.286Z,24.57
2019-04-05T09:31:06.370Z,24.93
2019-04-05T09:34:14.409Z,20.70
2019-04-05T09:37:22.446Z,22.83
2019-04-05T09:40:30.462Z,24.80
2019-04-05T09:43:38.486Z,20.10
2019-04-05T09:46:50.902Z,23.43
2019-04-05T09:49:56.237Z,23.27
2019-04-05T09:53:04.276Z,23.13
2019-04-05T09:56:12.367Z,23.40
2019-04-05T09:59:20.410Z,21.33
2019-04-05T10:02:31.595Z,23.77
2019-04-05T10:05:38.221Z,22.00
2019-04-05T10:08:46.257Z,23.20
2019-04-05T10:11:54.282Z,22.87
2019-04-05T10:14:55.142Z,23.77
2019-04-05T10:17:55.973Z,20.90
2019-04-05T10:20:56.600Z,26.60
2019-04-05T10:23:57.286Z,22.93
2019-04-05T10:26:58.285Z,25.00
2019-04-05T10:29:59.184Z,23.90
2019-04-05T10:33:00.267Z,25.80
2019-04-05T10:36:01.210Z,25.60
2019-04-05T10:39:02.302Z,22.60
2019-04-05T10:42:04.059Z,24.83
2019-04-05T10:45:05.276Z,24.10
2019-04-05T10:48:06.373Z,26.73
2019-04-05T10:51:07.238Z,23.20
2019-04-05T10:54:09.554Z,25.37
2019-04-05T10:57:10.391Z,24.37
2019-04-05T11:00:11.741Z,22.63
2019-04-05T11:03:12.926Z,23.23
2019-04-05T11:06:13.305Z,22.33
2019-04-05T11:09:14.149Z,25.67
2019-04-05T11:12:17.561Z,22.40
2019-04-05T11:15:18.437Z,23.57
2019-04-05T11:18:19.110Z,24.57
2019-04-05T11:21:19.501Z,25.73
2019-04-05T11:24:19.985Z,26.30
2019-04-05T11:27:20.662Z,23.93
2019-04-05T11:30:21.349Z,22.47
2019-04-05T11:33:22.226Z,24.27
2019-04-05T11:36:22.978Z,24.27
2019-04-05T11:39:23.650Z,23.07
2019-04-05T11:42:24.372Z,27.43
2019-04-05T11:45:24.901Z,22.37
2019-04-05T11:48:25.456Z,31.40
2019-04-05T11:51:26.076Z,24.80
2019-04-05T11:54:27.022Z,22.57
2019-04-05T11:57:27.902Z,24.80
2019-04-05T12:03:44.011Z,28.50
2019-04-05T12:06:44.986Z,38.83
2019-04-05T12:09:46.024Z,27.80
2019-04-05T12:12:48.601Z,32.37
2019-04-05T12:15:49.551Z,31.67
2019-04-05T12:18:50.409Z,28.93
2019-04-05T12:21:51.114Z,24.30
2019-04-05T12:24:51.742Z,26.07
2019-04-05T12:28:00.336Z,24.83
2019-04-05T12:30:55.236Z,29.10
2019-04-05T12:33:56.165Z,27.40
2019-04-05T12:36:44.949Z,27.90
2019-04-05T12:39:52.984Z,30.23
2019-04-05T12:43:01.000Z,31.20
2019-04-05T12:46:09.106Z,33.37
2019-04-05T12:49:17.137Z,26.90
2019-04-05T12:52:27.468Z,29.77
2019-04-05T12:55:34.881Z,29.83
2019-04-05T12:58:42.894Z,26.27
2019-04-05T13:01:51.001Z,30.13
2019-04-05T13:04:59.029Z,29.83
2019-04-05T13:08:07.046Z,27.73
2019-04-05T13:11:15.077Z,28.13
2019-04-05T13:14:15.904Z,32.50
2019-04-05T13:17:16.896Z,31.07
2019-04-05T13:20:17.604Z,32.80
2019-04-05T13:23:18.194Z,31.23
2019-04-05T13:26:18.950Z,28.70
2019-04-05T13:29:20.316Z,30.53
2019-04-05T13:32:21.550Z,30.17
2019-04-05T13:35:29.161Z,36.03
2019-04-05T13:38:37.174Z,31.97
2019-04-05T13:41:45.221Z,27.83
2019-04-05T13:44:53.255Z,33.30
2019-04-05T13:48:01.265Z,34.87
2019-04-05T13:51:10.393Z,32.43
2019-04-05T13:54:19.005Z,32.07
2019-04-05T13:57:28.513Z,35.13
2019-04-05T14:00:36.830Z,36.50
2019-04-05T14:03:44.837Z,36.90
2019-04-05T14:06:53.674Z,38.40
2019-04-05T14:10:02.681Z,34.03
2019-04-05T14:13:10.713Z,37.27
2019-04-05T14:16:18.742Z,32.03
2019-04-05T14:19:28.805Z,35.00
2019-04-05T14:22:36.496Z,31.93
2019-04-05T14:25:44.529Z,35.37
2019-04-05T14:28:53.119Z,33.23
2019-04-05T14:32:19.387Z,29.23
2019-04-05T14:38:11.812Z,33.40
2019-04-05T14:41:20.825Z,39.13
2019-04-05T14:44:28.838Z,35.33
2019-04-05T14:47:36.945Z,29.03
2019-04-05T14:53:59.597Z,34.27
2019-04-05T14:57:08.649Z,37.03
2019-04-05T15:03:45.802Z,31.60
2019-04-05T15:10:07.257Z,33.60
2019-04-05T15:12:56.058Z,32.23
2019-04-05T15:15:57.024Z,33.23
2019-04-05T15:18:57.706Z,34.10
2019-04-05T15:22:05.585Z,37.37
2019-04-05T15:25:01.459Z,36.13
2019-04-05T15:28:02.188Z,35.43
2019-04-05T15:31:03.100Z,32.87
2019-04-05T15:34:04.098Z,35.40
2019-04-05T15:37:05.590Z,38.83
2019-04-05T15:40:05.994Z,39.27
2019-04-05T15:43:07.049Z,39.63
2019-04-05T15:46:08.033Z,32.17
2019-04-05T15:49:08.881Z,38.43
2019-04-05T15:52:18.570Z,36.63
2019-04-05T15:55:12.699Z,41.90
2019-04-05T15:58:13.369Z,39.23
2019-04-05T16:01:14.405Z,35.60
2019-04-05T16:04:15.137Z,39.57
2019-04-05T16:07:15.789Z,37.90
2019-04-05T16:10:16.461Z,40.40
2019-04-05T16:13:17.362Z,34.37
2019-04-05T16:16:18.081Z,38.70
2019-04-05T16:19:18.917Z,35.50
2019-04-05T16:22:30.854Z,34.83
2019-04-05T16:25:22.376Z,43.73
2019-04-05T16:28:23.118Z,38.60
2019-04-05T16:31:23.696Z,40.90
2019-04-05T16:34:24.516Z,40.00
2019-04-05T16:37:25.261Z,41.57
2019-04-05T16:40:26.149Z,37.57
2019-04-05T16:43:26.909Z,38.27
2019-04-05T16:46:27.561Z,39.80
2019-04-05T16:49:28.478Z,37.57
2019-04-05T16:52:29.429Z,39.00
2019-04-05T16:55:30.097Z,41.50
2019-04-05T16:58:30.849Z,41.03
2019-04-05T17:01:31.697Z,37.20
2019-04-05T17:04:32.477Z,39.00
2019-04-05T17:07:33.270Z,40.67
2019-04-05T17:10:34.581Z,46.37
2019-04-05T17:13:35.008Z,38.50
2019-04-05T17:16:35.721Z,43.63
2019-04-05T17:19:36.464Z,37.33
2019-04-05T17:22:37.320Z,44.50
2019-04-05T17:25:37.790Z,40.97
2019-04-05T17:28:38.808Z,43.03
2019-04-05T17:31:39.296Z,43.67
2019-04-05T17:34:41.210Z,44.03
2019-04-05T17:37:41.873Z,45.87
2019-04-05T17:40:42.886Z,40.57
2019-04-05T17:43:43.574Z,47.67
2019-04-05T17:46:44.334Z,48.33
2019-04-05T17:49:45.122Z,45.77
2019-04-05T17:52:45.786Z,48.30
2019-04-05T17:55:46.937Z,42.70
2019-04-05T17:58:47.686Z,38.60
2019-04-05T18:01:48.395Z,44.27
2019-04-05T18:04:49.137Z,43.07
2019-04-05T18:07:50.261Z,42.53
2019-04-05T18:10:51.085Z,46.87
2019-04-05T18:13:52.192Z,44.03
2019-04-05T18:16:53.051Z,51.50
2019-04-05T18:19:53.849Z,50.57
2019-04-05T18:22:54.494Z,50.43
2019-04-05T18:25:55.494Z,44.77
2019-04-05T18:28:56.117Z,45.73
2019-04-05T18:31:56.793Z,49.40
2019-04-05T18:34:57.569Z,43.63
2019-04-05T18:37:58.131Z,49.77
2019-04-05T18:40:58.773Z,47.73
2019-04-05T18:43:59.441Z,49.23
2019-04-05T18:47:00.342Z,52.47
2019-04-05T18:50:03.226Z,54.60
2019-04-05T18:53:04.242Z,50.53
2019-04-05T18:56:05.161Z,53.30
2019-04-05T18:59:05.797Z,57.80
2019-04-05T19:02:06.513Z,52.93
2019-04-05T19:05:07.296Z,55.90
2019-04-05T19:08:08.290Z,56.30
2019-04-05T19:11:09.241Z,64.60
2019-04-05T19:14:09.867Z,51.10
2019-04-05T19:17:22.901Z,53.13
2019-04-05T19:20:13.383Z,51.40
2019-04-05T19:23:14.113Z,47.17
2019-04-05T19:26:14.982Z,58.20
2019-04-05T19:29:15.822Z,58.27
2019-04-05T19:50:33.261Z,61.00
2019-04-05T19:53:34.025Z,51.33
2019-04-05T19:56:35.271Z,53.63
2019-04-05T19:59:36.279Z,60.23
2019-04-05T20:02:37.305Z,63.47
2019-04-05T20:05:37.858Z,62.97
2019-04-05T20:08:38.524Z,57.87
2019-04-05T20:11:39.086Z,59.80
2019-04-05T20:14:39.621Z,56.07
2019-04-05T20:17:40.319Z,52.63
2019-04-05T20:20:41.300Z,54.70
2019-04-05T20:23:47.492Z,54.57
2019-04-05T20:26:44.990Z,51.20
2019-04-05T20:29:45.777Z,50.73
2019-04-05T20:32:46.377Z,54.23
2019-04-05T20:35:47.137Z,52.80
2019-04-05T20:38:47.941Z,62.07
2019-04-05T20:41:48.842Z,55.83
2019-04-05T20:44:49.685Z,77.72
2019-04-05T20:47:50.474Z,69.10
2019-04-05T20:50:51.277Z,59.67
2019-04-05T20:53:52.023Z,58.67
2019-04-05T20:56:52.841Z,62.43
2019-04-05T20:59:53.927Z,55.30
2019-04-05T21:02:54.784Z,56.60
2019-04-05T21:05:55.557Z,53.87
2019-04-05T21:08:56.390Z,58.27
2019-04-05T21:11:57.114Z,58.03
2019-04-05T21:14:58.114Z,52.63
2019-04-05T21:17:58.790Z,57.50
2019-04-05T21:20:59.625Z,50.93
2019-04-05T21:24:00.556Z,51.47
2019-04-05T21:27:01.414Z,50.93
2019-04-05T21:30:02.341Z,54.87
2019-04-05T21:33:03.014Z,53.77
2019-04-05T21:36:03.665Z,52.90
2019-04-05T21:39:04.768Z,57.53
2019-04-05T21:42:12.777Z,54.27
2019-04-05T21:45:20.809Z,58.63
2019-04-05T21:48:30.633Z,52.07
2019-04-05T21:51:38.551Z,57.17
2019-04-05T21:54:47.809Z,59.07
2019-04-05T22:04:40.534Z,57.67
2019-04-05T22:07:48.548Z,61.93
2019-04-05T22:10:56.581Z,67.07
2019-04-05T22:13:57.669Z,62.40
2019-04-05T22:16:58.671Z,54.37
2019-04-05T22:19:59.181Z,64.23
2019-04-05T22:22:59.645Z,66.90
2019-04-05T22:26:00.228Z,75.57
2019-04-05T22:29:00.721Z,101.20
2019-04-05T22:32:01.583Z,67.23
2019-04-05T22:35:02.410Z,73.33
2019-04-05T22:38:02.954Z,85.03
2019-04-05T22:41:03.845Z,84.37
2019-04-05T22:44:04.722Z,82.83
2019-04-05T22:47:05.279Z,98.77
2019-04-05T22:50:05.898Z,82.80
2019-04-05T22:53:06.424Z,81.87
2019-04-05T22:56:07.233Z,81.37
2019-04-05T22:59:07.602Z,85.47
2019-04-05T23:02:08.374Z,97.13
2019-04-05T23:05:09.209Z,107.30
2019-04-05T23:08:10.117Z,88.70
2019-04-05T23:11:10.861Z,88.37
2019-04-05T23:14:11.585Z,83.13
2019-04-05T23:17:12.617Z,116.73
2019-04-05T23:20:13.534Z,82.60
2019-04-05T23:23:14.341Z,95.53
2019-04-05T23:26:14.873Z,103.30
2019-04-05T23:29:15.822Z,82.03
2019-04-05T23:32:16.705Z,88.87
2019-04-05T23:35:17.562Z,90.20
2019-04-05T23:38:18.233Z,92.00
2019-04-05T23:41:19.137Z,84.73
2019-04-05T23:44:19.909Z,80.50
2019-04-05T23:47:20.727Z,87.40
2019-04-05T23:50:21.506Z,87.33
2019-04-05T23:53:22.329Z,80.33
2019-04-05T23:56:23.100Z,90.17
2019-04-05T23:59:23.933Z,100.97
